sensor_id;sensor_type;location;lat;lon;timestamp;temperature;humidity
13433;DHT22;6789;47.678;9.158;2022-07-05T00:05:28;18.10;99.90
13433;DHT22;6789;47.678;9.158;2022-07-05T00:10:54;18.10;99.90
13433;DHT22;6789;47.678;9.158;2022-07-05T00:16:51;18.10;99.90
13433;DHT22;6789;47.678;9.158;2022-07-05T00:22:08;18.10;99.90
13433;DHT22;6789;47.678;9.158;2022-07-05T00:27:49;18.10;99.90
13433;DHT22;6789;47.678;9.158;2022-07-05T00:33:00;18.20;99.90
13433;DHT22;6789;47.678;9.158;2022-07-05T00:38:28;18.20;99.90
13433;DHT22;6789;47.678;9.158;2022-07-05T00:44:10;18.20;99.90
13433;DHT22;6789;47.678;9.158;2022-07-05T00:49:28;18.20;99.90
13433;DHT22;6789;47.678;9.158;2022-07-05T00:54:49;18.10;99.90
13433;DHT22;6789;47.678;9.158;2022-07-05T00:59:44;18.20;99.90
13433;DHT22;6789;47.678;9.158;2022-07-05T01:06:21;18.20;99.90
13433;DHT22;6789;47.678;9.158;2022-07-05T01:11:48;18.10;99.90
13433;DHT22;6789;47.678;9.158;2022-07-05T01:17:35;18.10;99.90
13433;DHT22;6789;47.678;9.158;2022-07-05T01:28:43;18.00;99.90
13433;DHT22;6789;47.678;9.158;2022-07-05T01:34:43;18.10;99.90
13433;DHT22;6789;47.678;9.158;2022-07-05T01:40:21;18.20;99.90
13433;DHT22;6789;47.678;9.158;2022-07-05T01:45:38;18.30;99.90
13433;DHT22;6789;47.678;9.158;2022-07-05T01:51:41;18.40;99.90
13433;DHT22;6789;47.678;9.158;2022-07-05T01:56:55;18.40;99.90
13433;DHT22;6789;47.678;9.158;2022-07-05T02:02:55;18.50;99.90
13433;DHT22;6789;47.678;9.158;2022-07-05T02:08:12;18.40;99.90
13433;DHT22;6789;47.678;9.158;2022-07-05T02:13:31;18.40;99.90
13433;DHT22;6789;47.678;9.158;2022-07-05T02:25:27;18.50;99.90
13433;DHT22;6789;47.678;9.158;2022-07-05T02:30:45;18.40;99.90
13433;DHT22;6789;47.678;9.158;2022-07-05T02:36:07;18.30;99.90
13433;DHT22;6789;47.678;9.158;2022-07-05T03:01:35;18.50;99.90
13433;DHT22;6789;47.678;9.158;2022-07-05T03:07:43;18.40;99.90
13433;DHT22;6789;47.678;9.158;2022-07-05T03:13:09;18.50;99.90
13433;DHT22;6789;47.678;9.158;2022-07-05T03:18:01;18.50;99.90
13433;DHT22;6789;47.678;9.158;2022-07-05T03:22:53;18.50;99.90
13433;DHT22;6789;47.678;9.158;2022-07-05T03:27:45;18.60;99.90
13433;DHT22;6789;47.678;9.158;2022-07-05T03:37:44;18.60;99.90
13433;DHT22;6789;47.678;9.158;2022-07-05T03:47:43;18.70;99.90
13433;DHT22;6789;47.678;9.158;2022-07-05T03:52:34;18.70;99.90
13433;DHT22;6789;47.678;9.158;2022-07-05T03:57:26;18.90;99.90
13433;DHT22;6789;47.678;9.158;2022-07-05T04:02:36;18.90;99.90
13433;DHT22;6789;47.678;9.158;2022-07-05T04:08:13;18.70;99.90
13433;DHT22;6789;47.678;9.158;2022-07-05T04:13:40;18.80;99.90
13433;DHT22;6789;47.678;9.158;2022-07-05T04:19:47;18.80;99.90
13433;DHT22;6789;47.678;9.158;2022-07-05T04:24:55;18.70;99.90
13433;DHT22;6789;47.678;9.158;2022-07-05T04:31:12;18.70;99.90
13433;DHT22;6789;47.678;9.158;2022-07-05T04:49:39;18.80;99.90
13433;DHT22;6789;47.678;9.158;2022-07-05T04:55:16;18.90;99.90
13433;DHT22;6789;47.678;9.158;2022-07-05T05:01:13;18.80;99.90
13433;DHT22;6789;47.678;9.158;2022-07-05T05:11:43;19.00;99.90
13433;DHT22;6789;47.678;9.158;2022-07-05T05:24:28;19.20;99.90
13433;DHT22;6789;47.678;9.158;2022-07-05T05:29:37;19.30;99.90
13433;DHT22;6789;47.678;9.158;2022-07-05T06:19:41;26.60;99.90
13433;DHT22;6789;47.678;9.158;2022-07-05T06:24:33;27.30;99.90
13433;DHT22;6789;47.678;9.158;2022-07-05T06:29:25;27.80;99.90
13433;DHT22;6789;47.678;9.158;2022-07-05T06:34:17;27.40;99.90
13433;DHT22;6789;47.678;9.158;2022-07-05T06:39:09;27.00;99.90
13433;DHT22;6789;47.678;9.158;2022-07-05T06:44:16;26.90;99.90
13433;DHT22;6789;47.678;9.158;2022-07-05T06:49:24;27.10;99.90
13433;DHT22;6789;47.678;9.158;2022-07-05T06:54:34;26.80;99.90
13433;DHT22;6789;47.678;9.158;2022-07-05T06:59:41;26.80;99.90
13433;DHT22;6789;47.678;9.158;2022-07-05T07:05:05;26.30;99.90
13433;DHT22;6789;47.678;9.158;2022-07-05T07:10:20;26.30;99.90
13433;DHT22;6789;47.678;9.158;2022-07-05T07:15:36;26.60;99.90
13433;DHT22;6789;47.678;9.158;2022-07-05T07:21:15;26.90;99.90
13433;DHT22;6789;47.678;9.158;2022-07-05T07:26:41;26.70;99.90
13433;DHT22;6789;47.678;9.158;2022-07-05T07:32:16;26.40;99.90
13433;DHT22;6789;47.678;9.158;2022-07-05T07:38:29;26.90;99.90
13433;DHT22;6789;47.678;9.158;2022-07-05T07:43:57;27.00;99.90
13433;DHT22;6789;47.678;9.158;2022-07-05T07:49:09;26.50;99.90
13433;DHT22;6789;47.678;9.158;2022-07-05T07:54:24;26.60;99.90
13433;DHT22;6789;47.678;9.158;2022-07-05T08:00:08;27.30;99.90
13433;DHT22;6789;47.678;9.158;2022-07-05T08:05:25;27.60;99.90
13433;DHT22;6789;47.678;9.158;2022-07-05T08:10:35;28.10;99.90
13433;DHT22;6789;47.678;9.158;2022-07-05T08:22:19;27.20;99.90
13433;DHT22;6789;47.678;9.158;2022-07-05T08:27:55;27.60;99.90
13433;DHT22;6789;47.678;9.158;2022-07-05T08:33:25;27.50;99.90
13433;DHT22;6789;47.678;9.158;2022-07-05T08:39:05;27.00;99.90
13433;DHT22;6789;47.678;9.158;2022-07-05T08:44:37;26.50;99.90
13433;DHT22;6789;47.678;9.158;2022-07-05T08:55:09;25.60;99.90
13433;DHT22;6789;47.678;9.158;2022-07-05T09:00:39;25.00;99.90
13433;DHT22;6789;47.678;9.158;2022-07-05T09:05:49;24.90;99.90
13433;DHT22;6789;47.678;9.158;2022-07-05T09:11:12;25.00;99.90
13433;DHT22;6789;47.678;9.158;2022-07-05T23:10:48;19.70;99.90
13433;DHT22;6789;47.678;9.158;2022-07-05T23:26:14;19.30;99.90
13433;DHT22;6789;47.678;9.158;2022-07-05T23:31:50;19.10;99.90
13433;DHT22;6789;47.678;9.158;2022-07-05T23:59:50;18.60;99.90
